sensor_id;sensor_type;location;lat;lon;timestamp;P1;durP1;ratioP1;P2;durP2;ratioP2
66143;SDS011;52947;50.842;6.084;2024-01-15T00:01:22;78.40;;;28.35;;
66143;SDS011;52947;50.842;6.084;2024-01-15T00:03:50;75.45;;;29.67;;
66143;SDS011;52947;50.842;6.084;2024-01-15T00:06:18;71.72;;;28.15;;
66143;SDS011;52947;50.842;6.084;2024-01-15T00:08:48;74.18;;;27.27;;
66143;SDS011;52947;50.842;6.084;2024-01-15T00:11:16;80.10;;;28.02;;
66143;SDS011;52947;50.842;6.084;2024-01-15T00:13:44;80.28;;;29.05;;
66143;SDS011;52947;50.842;6.084;2024-01-15T00:16:12;71.80;;;30.55;;
66143;SDS011;52947;50.842;6.084;2024-01-15T00:18:40;75.82;;;27.63;;
66143;SDS011;52947;50.842;6.084;2024-01-15T00:21:27;73.80;;;27.85;;
66143;SDS011;52947;50.842;6.084;2024-01-15T00:23:56;83.40;;;30.20;;
66143;SDS011;52947;50.842;6.084;2024-01-15T00:26:24;65.85;;;26.67;;
66143;SDS011;52947;50.842;6.084;2024-01-15T00:28:52;69.63;;;26.67;;
66143;SDS011;52947;50.842;6.084;2024-01-15T00:31:20;66.43;;;28.85;;
66143;SDS011;52947;50.842;6.084;2024-01-15T00:33:49;75.78;;;26.98;;
66143;SDS011;52947;50.842;6.084;2024-01-15T00:36:17;79.45;;;29.27;;
66143;SDS011;52947;50.842;6.084;2024-01-15T00:38:45;59.83;;;24.83;;
66143;SDS011;52947;50.842;6.084;2024-01-15T00:41:15;65.03;;;26.02;;
66143;SDS011;52947;50.842;6.084;2024-01-15T00:43:43;75.60;;;29.20;;
66143;SDS011;52947;50.842;6.084;2024-01-15T00:46:11;74.13;;;29.35;;
66143;SDS011;52947;50.842;6.084;2024-01-15T00:48:40;71.53;;;27.92;;
66143;SDS011;52947;50.842;6.084;2024-01-15T00:51:08;67.72;;;26.90;;
66143;SDS011;52947;50.842;6.084;2024-01-15T00:53:36;71.03;;;27.05;;
66143;SDS011;52947;50.842;6.084;2024-01-15T00:56:04;67.10;;;26.25;;
66143;SDS011;52947;50.842;6.084;2024-01-15T00:58:34;77.78;;;30.20;;
66143;SDS011;52947;50.842;6.084;2024-01-15T01:01:02;74.32;;;29.75;;
66143;SDS011;52947;50.842;6.084;2024-01-15T01:03:30;62.15;;;25.23;;
66143;SDS011;52947;50.842;6.084;2024-01-15T01:05:58;77.68;;;27.88;;
66143;SDS011;52947;50.842;6.084;2024-01-15T01:08:26;69.78;;;29.42;;
66143;SDS011;52947;50.842;6.084;2024-01-15T01:10:55;71.00;;;27.98;;
66143;SDS011;52947;50.842;6.084;2024-01-15T01:13:23;74.57;;;30.88;;
66143;SDS011;52947;50.842;6.084;2024-01-15T01:15:53;74.97;;;29.02;;
66143;SDS011;52947;50.842;6.084;2024-01-15T01:18:21;86.63;;;31.75;;
66143;SDS011;52947;50.842;6.084;2024-01-15T01:20:49;83.70;;;29.77;;
66143;SDS011;52947;50.842;6.084;2024-01-15T01:23:18;84.60;;;31.80;;
66143;SDS011;52947;50.842;6.084;2024-01-15T01:25:46;78.07;;;30.17;;
66143;SDS011;52947;50.842;6.084;2024-01-15T01:28:14;76.00;;;28.00;;
66143;SDS011;52947;50.842;6.084;2024-01-15T01:30:42;69.10;;;27.88;;
66143;SDS011;52947;50.842;6.084;2024-01-15T01:33:11;91.30;;;32.55;;
66143;SDS011;52947;50.842;6.084;2024-01-15T01:35:40;75.72;;;30.77;;
66143;SDS011;52947;50.842;6.084;2024-01-15T01:38:08;84.15;;;31.05;;
66143;SDS011;52947;50.842;6.084;2024-01-15T01:40:36;80.85;;;31.20;;
66143;SDS011;52947;50.842;6.084;2024-01-15T01:43:04;88.47;;;35.67;;
66143;SDS011;52947;50.842;6.084;2024-01-15T01:45:32;78.13;;;30.42;;
66143;SDS011;52947;50.842;6.084;2024-01-15T01:48:00;89.55;;;34.10;;
66143;SDS011;52947;50.842;6.084;2024-01-15T01:50:30;83.80;;;30.70;;
66143;SDS011;52947;50.842;6.084;2024-01-15T01:52:59;97.22;;;36.35;;
66143;SDS011;52947;50.842;6.084;2024-01-15T01:55:28;98.60;;;37.55;;
66143;SDS011;52947;50.842;6.084;2024-01-15T01:58:00;87.15;;;34.45;;
66143;SDS011;52947;50.842;6.084;2024-01-15T02:00:28;72.72;;;34.00;;
66143;SDS011;52947;50.842;6.084;2024-01-15T02:02:57;76.15;;;33.22;;
66143;SDS011;52947;50.842;6.084;2024-01-15T02:05:26;69.97;;;30.27;;
66143;SDS011;52947;50.842;6.084;2024-01-15T02:07:56;69.22;;;31.83;;
66143;SDS011;52947;50.842;6.084;2024-01-15T02:10:24;68.82;;;31.38;;
66143;SDS011;52947;50.842;6.084;2024-01-15T02:12:52;64.35;;;30.30;;
66143;SDS011;52947;50.842;6.084;2024-01-15T02:15:20;60.15;;;29.90;;
66143;SDS011;52947;50.842;6.084;2024-01-15T02:17:58;62.05;;;29.15;;
66143;SDS011;52947;50.842;6.084;2024-01-15T02:20:27;55.28;;;26.77;;
66143;SDS011;52947;50.842;6.084;2024-01-15T02:23:01;67.75;;;29.67;;
66143;SDS011;52947;50.842;6.084;2024-01-15T02:25:35;66.53;;;28.35;;
66143;SDS011;52947;50.842;6.084;2024-01-15T02:28:05;58.38;;;28.10;;
66143;SDS011;52947;50.842;6.084;2024-01-15T02:30:34;55.40;;;27.33;;
66143;SDS011;52947;50.842;6.084;2024-01-15T02:33:05;54.38;;;27.05;;
66143;SDS011;52947;50.842;6.084;2024-01-15T02:35:34;64.45;;;30.20;;
66143;SDS011;52947;50.842;6.084;2024-01-15T02:38:05;67.20;;;27.75;;
66143;SDS011;52947;50.842;6.084;2024-01-15T02:40:33;59.45;;;30.25;;
66143;SDS011;52947;50.842;6.084;2024-01-15T02:43:02;54.30;;;27.17;;
66143;SDS011;52947;50.842;6.084;2024-01-15T02:45:30;62.72;;;25.30;;
66143;SDS011;52947;50.842;6.084;2024-01-15T02:47:58;64.97;;;26.77;;
66143;SDS011;52947;50.842;6.084;2024-01-15T02:50:26;55.95;;;27.15;;
66143;SDS011;52947;50.842;6.084;2024-01-15T02:52:54;54.70;;;29.20;;
66143;SDS011;52947;50.842;6.084;2024-01-15T02:55:23;69.60;;;28.58;;
66143;SDS011;52947;50.842;6.084;2024-01-15T02:57:51;58.38;;;27.92;;
66143;SDS011;52947;50.842;6.084;2024-01-15T03:00:19;49.05;;;25.00;;
66143;SDS011;52947;50.842;6.084;2024-01-15T03:02:48;57.20;;;25.95;;
66143;SDS011;52947;50.842;6.084;2024-01-15T03:05:17;50.15;;;23.85;;
66143;SDS011;52947;50.842;6.084;2024-01-15T03:07:46;55.00;;;24.90;;
66143;SDS011;52947;50.842;6.084;2024-01-15T03:10:14;46.25;;;25.52;;
66143;SDS011;52947;50.842;6.084;2024-01-15T03:12:44;53.80;;;26.25;;
66143;SDS011;52947;50.842;6.084;2024-01-15T03:15:12;50.90;;;26.45;;
66143;SDS011;52947;50.842;6.084;2024-01-15T03:17:41;50.03;;;27.25;;
66143;SDS011;52947;50.842;6.084;2024-01-15T03:20:09;54.45;;;26.83;;
66143;SDS011;52947;50.842;6.084;2024-01-15T03:22:38;63.47;;;29.80;;
66143;SDS011;52947;50.842;6.084;2024-01-15T03:25:07;53.67;;;23.85;;
66143;SDS011;52947;50.842;6.084;2024-01-15T03:27:35;53.58;;;26.80;;
66143;SDS011;52947;50.842;6.084;2024-01-15T03:30:05;63.00;;;27.40;;
66143;SDS011;52947;50.842;6.084;2024-01-15T03:32:34;54.38;;;28.33;;
66143;SDS011;52947;50.842;6.084;2024-01-15T03:35:02;49.70;;;25.00;;
66143;SDS011;52947;50.842;6.084;2024-01-15T03:37:31;54.58;;;27.10;;
66143;SDS011;52947;50.842;6.084;2024-01-15T03:39:59;51.08;;;26.02;;
66143;SDS011;52947;50.842;6.084;2024-01-15T03:42:27;48.75;;;24.85;;
66143;SDS011;52947;50.842;6.084;2024-01-15T03:44:55;50.63;;;25.00;;
66143;SDS011;52947;50.842;6.084;2024-01-15T03:47:24;53.75;;;27.10;;
66143;SDS011;52947;50.842;6.084;2024-01-15T03:49:53;49.78;;;23.80;;
66143;SDS011;52947;50.842;6.084;2024-01-15T03:52:21;48.30;;;24.42;;
66143;SDS011;52947;50.842;6.084;2024-01-15T03:54:50;51.25;;;26.67;;
66143;SDS011;52947;50.842;6.084;2024-01-15T03:57:18;52.40;;;26.25;;
66143;SDS011;52947;50.842;6.084;2024-01-15T03:59:46;54.67;;;28.73;;
66143;SDS011;52947;50.842;6.084;2024-01-15T04:02:14;51.30;;;26.95;;
66143;SDS011;52947;50.842;6.084;2024-01-15T04:04:44;40.22;;;22.85;;
66143;SDS011;52947;50.842;6.084;2024-01-15T04:07:12;47.63;;;25.20;;
66143;SDS011;52947;50.842;6.084;2024-01-15T04:09:40;42.45;;;24.38;;
66143;SDS011;52947;50.842;6.084;2024-01-15T04:12:08;43.03;;;22.70;;
66143;SDS011;52947;50.842;6.084;2024-01-15T04:14:36;41.60;;;23.27;;
66143;SDS011;52947;50.842;6.084;2024-01-15T04:17:04;38.22;;;22.35;;
66143;SDS011;52947;50.842;6.084;2024-01-15T04:19:32;45.50;;;23.85;;
66143;SDS011;52947;50.842;6.084;2024-01-15T04:22:02;42.28;;;22.98;;
66143;SDS011;52947;50.842;6.084;2024-01-15T04:24:31;45.95;;;24.83;;
66143;SDS011;52947;50.842;6.084;2024-01-15T04:27:16;49.55;;;26.58;;
66143;SDS011;52947;50.842;6.084;2024-01-15T04:29:44;39.88;;;23.75;;
66143;SDS011;52947;50.842;6.084;2024-01-15T04:32:12;43.63;;;25.92;;
66143;SDS011;52947;50.842;6.084;2024-01-15T04:34:40;41.17;;;24.65;;
66143;SDS011;52947;50.842;6.084;2024-01-15T04:37:10;48.85;;;25.70;;
66143;SDS011;52947;50.842;6.084;2024-01-15T04:39:38;42.88;;;23.70;;
66143;SDS011;52947;50.842;6.084;2024-01-15T04:42:06;46.03;;;23.95;;
66143;SDS011;52947;50.842;6.084;2024-01-15T04:44:35;49.63;;;25.60;;
66143;SDS011;52947;50.842;6.084;2024-01-15T04:47:03;50.40;;;25.38;;
66143;SDS011;52947;50.842;6.084;2024-01-15T04:49:31;49.47;;;23.25;;
66143;SDS011;52947;50.842;6.084;2024-01-15T04:51:59;47.08;;;24.00;;
66143;SDS011;52947;50.842;6.084;2024-01-15T04:54:28;41.78;;;24.15;;
66143;SDS011;52947;50.842;6.084;2024-01-15T04:56:56;43.20;;;23.20;;
66143;SDS011;52947;50.842;6.084;2024-01-15T04:59:25;46.53;;;25.52;;
66143;SDS011;52947;50.842;6.084;2024-01-15T05:01:53;40.55;;;21.77;;
66143;SDS011;52947;50.842;6.084;2024-01-15T05:04:22;51.55;;;23.38;;
66143;SDS011;52947;50.842;6.084;2024-01-15T05:06:51;45.08;;;23.33;;
66143;SDS011;52947;50.842;6.084;2024-01-15T05:09:19;43.35;;;21.10;;
66143;SDS011;52947;50.842;6.084;2024-01-15T05:11:48;45.95;;;23.88;;
66143;SDS011;52947;50.842;6.084;2024-01-15T05:14:16;45.42;;;22.25;;
66143;SDS011;52947;50.842;6.084;2024-01-15T05:16:46;40.65;;;22.02;;
66143;SDS011;52947;50.842;6.084;2024-01-15T05:19:14;47.22;;;24.10;;
66143;SDS011;52947;50.842;6.084;2024-01-15T05:21:43;41.55;;;22.95;;
66143;SDS011;52947;50.842;6.084;2024-01-15T05:24:11;37.15;;;19.33;;
66143;SDS011;52947;50.842;6.084;2024-01-15T05:26:39;35.58;;;23.20;;
66143;SDS011;52947;50.842;6.084;2024-01-15T05:29:08;35.35;;;21.00;;
66143;SDS011;52947;50.842;6.084;2024-01-15T05:31:36;40.35;;;21.30;;
66143;SDS011;52947;50.842;6.084;2024-01-15T05:34:04;39.00;;;20.65;;
66143;SDS011;52947;50.842;6.084;2024-01-15T05:36:33;37.40;;;18.92;;
66143;SDS011;52947;50.842;6.084;2024-01-15T05:39:01;32.65;;;19.15;;
66143;SDS011;52947;50.842;6.084;2024-01-15T05:41:29;34.15;;;18.48;;
66143;SDS011;52947;50.842;6.084;2024-01-15T05:43:57;37.78;;;21.75;;
66143;SDS011;52947;50.842;6.084;2024-01-15T05:46:26;41.40;;;21.67;;
66143;SDS011;52947;50.842;6.084;2024-01-15T05:48:54;34.72;;;19.30;;
66143;SDS011;52947;50.842;6.084;2024-01-15T05:51:22;37.22;;;20.02;;
66143;SDS011;52947;50.842;6.084;2024-01-15T05:53:50;36.75;;;18.75;;
66143;SDS011;52947;50.842;6.084;2024-01-15T05:56:18;33.53;;;20.30;;
66143;SDS011;52947;50.842;6.084;2024-01-15T05:58:47;36.60;;;20.85;;
66143;SDS011;52947;50.842;6.084;2024-01-15T06:01:15;39.83;;;20.50;;
66143;SDS011;52947;50.842;6.084;2024-01-15T06:03:44;31.25;;;18.17;;
66143;SDS011;52947;50.842;6.084;2024-01-15T06:06:12;31.85;;;19.15;;
66143;SDS011;52947;50.842;6.084;2024-01-15T06:08:41;33.28;;;20.05;;
66143;SDS011;52947;50.842;6.084;2024-01-15T06:11:09;33.58;;;20.60;;
66143;SDS011;52947;50.842;6.084;2024-01-15T06:13:36;37.13;;;20.23;;
66143;SDS011;52947;50.842;6.084;2024-01-15T06:16:11;43.72;;;20.20;;
66143;SDS011;52947;50.842;6.084;2024-01-15T06:18:41;40.22;;;20.65;;
66143;SDS011;52947;50.842;6.084;2024-01-15T06:21:10;39.75;;;20.15;;
66143;SDS011;52947;50.842;6.084;2024-01-15T06:23:39;40.53;;;22.08;;
66143;SDS011;52947;50.842;6.084;2024-01-15T06:26:07;42.53;;;23.63;;
66143;SDS011;52947;50.842;6.084;2024-01-15T06:28:35;50.05;;;26.33;;
66143;SDS011;52947;50.842;6.084;2024-01-15T06:31:03;59.10;;;26.50;;
66143;SDS011;52947;50.842;6.084;2024-01-15T06:33:32;53.78;;;25.48;;
66143;SDS011;52947;50.842;6.084;2024-01-15T06:36:00;50.53;;;28.90;;
66143;SDS011;52947;50.842;6.084;2024-01-15T06:38:29;48.97;;;25.33;;
66143;SDS011;52947;50.842;6.084;2024-01-15T06:40:57;52.15;;;27.20;;
66143;SDS011;52947;50.842;6.084;2024-01-15T06:43:25;57.10;;;29.00;;
66143;SDS011;52947;50.842;6.084;2024-01-15T06:45:53;55.45;;;29.20;;
66143;SDS011;52947;50.842;6.084;2024-01-15T06:48:22;58.50;;;28.27;;
66143;SDS011;52947;50.842;6.084;2024-01-15T06:50:50;56.42;;;28.17;;
66143;SDS011;52947;50.842;6.084;2024-01-15T06:53:18;68.30;;;27.17;;
66143;SDS011;52947;50.842;6.084;2024-01-15T06:55:48;56.75;;;29.10;;
66143;SDS011;52947;50.842;6.084;2024-01-15T06:58:17;54.15;;;26.27;;
66143;SDS011;52947;50.842;6.084;2024-01-15T07:00:45;59.08;;;26.17;;
66143;SDS011;52947;50.842;6.084;2024-01-15T07:03:13;64.22;;;31.17;;
66143;SDS011;52947;50.842;6.084;2024-01-15T07:05:42;62.22;;;32.80;;
66143;SDS011;52947;50.842;6.084;2024-01-15T07:08:10;60.85;;;27.75;;
66143;SDS011;52947;50.842;6.084;2024-01-15T07:10:38;50.10;;;27.10;;
66143;SDS011;52947;50.842;6.084;2024-01-15T07:13:07;54.40;;;29.73;;
66143;SDS011;52947;50.842;6.084;2024-01-15T07:15:36;53.55;;;26.88;;
66143;SDS011;52947;50.842;6.084;2024-01-15T07:18:04;54.35;;;29.92;;
66143;SDS011;52947;50.842;6.084;2024-01-15T07:20:33;54.90;;;27.15;;
66143;SDS011;52947;50.842;6.084;2024-01-15T07:23:00;55.55;;;26.90;;
66143;SDS011;52947;50.842;6.084;2024-01-15T07:25:28;47.08;;;26.55;;
66143;SDS011;52947;50.842;6.084;2024-01-15T07:27:56;53.25;;;27.95;;
66143;SDS011;52947;50.842;6.084;2024-01-15T07:30:26;52.45;;;25.83;;
66143;SDS011;52947;50.842;6.084;2024-01-15T07:32:54;46.92;;;23.58;;
66143;SDS011;52947;50.842;6.084;2024-01-15T07:35:22;47.63;;;22.15;;
66143;SDS011;52947;50.842;6.084;2024-01-15T07:37:50;45.08;;;22.10;;
66143;SDS011;52947;50.842;6.084;2024-01-15T07:40:18;50.00;;;24.70;;
66143;SDS011;52947;50.842;6.084;2024-01-15T07:42:46;36.58;;;22.35;;
66143;SDS011;52947;50.842;6.084;2024-01-15T07:45:14;34.95;;;20.77;;
66143;SDS011;52947;50.842;6.084;2024-01-15T07:47:44;34.97;;;20.45;;
66143;SDS011;52947;50.842;6.084;2024-01-15T07:50:12;40.60;;;22.50;;
66143;SDS011;52947;50.842;6.084;2024-01-15T07:52:40;38.25;;;19.98;;
66143;SDS011;52947;50.842;6.084;2024-01-15T07:55:08;31.42;;;21.42;;
66143;SDS011;52947;50.842;6.084;2024-01-15T07:57:37;35.97;;;19.33;;
66143;SDS011;52947;50.842;6.084;2024-01-15T08:00:05;31.00;;;17.90;;
66143;SDS011;52947;50.842;6.084;2024-01-15T08:02:36;26.70;;;16.77;;
66143;SDS011;52947;50.842;6.084;2024-01-15T08:05:05;29.05;;;15.93;;
66143;SDS011;52947;50.842;6.084;2024-01-15T08:07:34;30.90;;;17.48;;
66143;SDS011;52947;50.842;6.084;2024-01-15T08:10:02;25.13;;;16.02;;
66143;SDS011;52947;50.842;6.084;2024-01-15T08:12:30;24.73;;;15.80;;
66143;SDS011;52947;50.842;6.084;2024-01-15T08:14:58;23.92;;;15.82;;
66143;SDS011;52947;50.842;6.084;2024-01-15T08:17:26;25.88;;;17.85;;
66143;SDS011;52947;50.842;6.084;2024-01-15T08:19:55;26.38;;;16.92;;
66143;SDS011;52947;50.842;6.084;2024-01-15T08:22:24;27.15;;;15.77;;
66143;SDS011;52947;50.842;6.084;2024-01-15T08:24:55;31.58;;;19.17;;
66143;SDS011;52947;50.842;6.084;2024-01-15T08:27:23;24.38;;;15.68;;
66143;SDS011;52947;50.842;6.084;2024-01-15T08:29:51;23.73;;;15.48;;
66143;SDS011;52947;50.842;6.084;2024-01-15T08:32:19;23.27;;;15.85;;
66143;SDS011;52947;50.842;6.084;2024-01-15T08:34:47;17.95;;;13.80;;
66143;SDS011;52947;50.842;6.084;2024-01-15T08:37:18;23.08;;;15.27;;
66143;SDS011;52947;50.842;6.084;2024-01-15T08:39:48;20.25;;;14.90;;
66143;SDS011;52947;50.842;6.084;2024-01-15T08:42:17;21.33;;;13.25;;
66143;SDS011;52947;50.842;6.084;2024-01-15T08:44:45;18.23;;;13.80;;
66143;SDS011;52947;50.842;6.084;2024-01-15T08:47:13;24.80;;;16.00;;
66143;SDS011;52947;50.842;6.084;2024-01-15T08:49:41;17.83;;;13.00;;
66143;SDS011;52947;50.842;6.084;2024-01-15T08:52:10;19.90;;;14.10;;
66143;SDS011;52947;50.842;6.084;2024-01-15T08:54:40;19.52;;;13.38;;
66143;SDS011;52947;50.842;6.084;2024-01-15T08:57:09;17.75;;;12.93;;
66143;SDS011;52947;50.842;6.084;2024-01-15T08:59:38;23.58;;;12.95;;
66143;SDS011;52947;50.842;6.084;2024-01-15T09:02:08;18.45;;;12.75;;
66143;SDS011;52947;50.842;6.084;2024-01-15T09:04:36;24.83;;;16.10;;
66143;SDS011;52947;50.842;6.084;2024-01-15T09:07:04;20.90;;;14.38;;
66143;SDS011;52947;50.842;6.084;2024-01-15T09:09:32;27.35;;;15.48;;
66143;SDS011;52947;50.842;6.084;2024-01-15T09:12:00;27.15;;;15.43;;
66143;SDS011;52947;50.842;6.084;2024-01-15T09:14:30;28.65;;;16.10;;
66143;SDS011;52947;50.842;6.084;2024-01-15T09:17:03;26.20;;;16.25;;
66143;SDS011;52947;50.842;6.084;2024-01-15T09:19:32;21.38;;;14.77;;
66143;SDS011;52947;50.842;6.084;2024-01-15T09:22:00;25.67;;;15.05;;
66143;SDS011;52947;50.842;6.084;2024-01-15T09:24:28;23.55;;;13.65;;
66143;SDS011;52947;50.842;6.084;2024-01-15T09:26:56;19.60;;;13.18;;
66143;SDS011;52947;50.842;6.084;2024-01-15T09:29:24;19.05;;;13.30;;
66143;SDS011;52947;50.842;6.084;2024-01-15T09:31:53;18.20;;;14.50;;
66143;SDS011;52947;50.842;6.084;2024-01-15T09:34:21;23.27;;;15.10;;
66143;SDS011;52947;50.842;6.084;2024-01-15T09:36:50;28.85;;;15.77;;
66143;SDS011;52947;50.842;6.084;2024-01-15T09:39:18;28.27;;;16.35;;
66143;SDS011;52947;50.842;6.084;2024-01-15T09:41:46;22.20;;;14.10;;
66143;SDS011;52947;50.842;6.084;2024-01-15T09:44:16;23.30;;;15.55;;
66143;SDS011;52947;50.842;6.084;2024-01-15T09:46:45;19.60;;;14.55;;
66143;SDS011;52947;50.842;6.084;2024-01-15T09:49:18;27.83;;;15.90;;
66143;SDS011;52947;50.842;6.084;2024-01-15T09:51:46;24.13;;;13.15;;
66143;SDS011;52947;50.842;6.084;2024-01-15T09:54:28;26.70;;;15.77;;
66143;SDS011;52947;50.842;6.084;2024-01-15T09:56:56;23.00;;;14.43;;
66143;SDS011;52947;50.842;6.084;2024-01-15T09:59:24;29.65;;;14.48;;
66143;SDS011;52947;50.842;6.084;2024-01-15T10:01:54;24.13;;;14.48;;
66143;SDS011;52947;50.842;6.084;2024-01-15T10:04:26;22.60;;;13.90;;
66143;SDS011;52947;50.842;6.084;2024-01-15T10:06:54;25.42;;;15.23;;
66143;SDS011;52947;50.842;6.084;2024-01-15T10:09:24;33.13;;;16.05;;
66143;SDS011;52947;50.842;6.084;2024-01-15T10:11:52;24.17;;;16.42;;
66143;SDS011;52947;50.842;6.084;2024-01-15T10:14:21;23.27;;;13.77;;
66143;SDS011;52947;50.842;6.084;2024-01-15T10:16:49;25.75;;;15.00;;
66143;SDS011;52947;50.842;6.084;2024-01-15T10:19:17;34.30;;;16.60;;
66143;SDS011;52947;50.842;6.084;2024-01-15T10:21:47;31.05;;;15.85;;
66143;SDS011;52947;50.842;6.084;2024-01-15T10:24:16;25.52;;;14.30;;
66143;SDS011;52947;50.842;6.084;2024-01-15T10:26:45;26.48;;;16.30;;
66143;SDS011;52947;50.842;6.084;2024-01-15T10:29:14;26.55;;;15.35;;
66143;SDS011;52947;50.842;6.084;2024-01-15T10:31:42;33.20;;;16.13;;
66143;SDS011;52947;50.842;6.084;2024-01-15T10:34:12;27.27;;;15.57;;
66143;SDS011;52947;50.842;6.084;2024-01-15T10:36:45;25.95;;;16.35;;
66143;SDS011;52947;50.842;6.084;2024-01-15T10:39:16;21.40;;;15.30;;
66143;SDS011;52947;50.842;6.084;2024-01-15T10:41:44;33.10;;;16.75;;
66143;SDS011;52947;50.842;6.084;2024-01-15T10:44:12;27.58;;;14.30;;
66143;SDS011;52947;50.842;6.084;2024-01-15T10:46:40;25.52;;;15.50;;
66143;SDS011;52947;50.842;6.084;2024-01-15T10:49:08;25.45;;;14.63;;
66143;SDS011;52947;50.842;6.084;2024-01-15T10:51:38;22.40;;;12.75;;
66143;SDS011;52947;50.842;6.084;2024-01-15T10:54:06;29.08;;;11.63;;
66143;SDS011;52947;50.842;6.084;2024-01-15T10:56:39;13.37;;;9.97;;
66143;SDS011;52947;50.842;6.084;2024-01-15T10:59:08;23.95;;;11.73;;
66143;SDS011;52947;50.842;6.084;2024-01-15T11:01:39;24.23;;;13.02;;
66143;SDS011;52947;50.842;6.084;2024-01-15T11:04:09;28.67;;;11.88;;
66143;SDS011;52947;50.842;6.084;2024-01-15T11:06:41;25.27;;;11.63;;
66143;SDS011;52947;50.842;6.084;2024-01-15T11:09:11;20.02;;;12.73;;
66143;SDS011;52947;50.842;6.084;2024-01-15T11:11:41;18.77;;;9.48;;
66143;SDS011;52947;50.842;6.084;2024-01-15T11:14:11;21.65;;;9.93;;
66143;SDS011;52947;50.842;6.084;2024-01-15T11:16:59;16.98;;;11.13;;
66143;SDS011;52947;50.842;6.084;2024-01-15T11:19:32;18.42;;;11.65;;
66143;SDS011;52947;50.842;6.084;2024-01-15T11:22:04;14.52;;;9.32;;
66143;SDS011;52947;50.842;6.084;2024-01-15T11:24:33;17.50;;;10.02;;
66143;SDS011;52947;50.842;6.084;2024-01-15T11:27:04;18.85;;;9.82;;
66143;SDS011;52947;50.842;6.084;2024-01-15T11:29:33;20.77;;;9.80;;
66143;SDS011;52947;50.842;6.084;2024-01-15T11:32:03;14.25;;;10.18;;
66143;SDS011;52947;50.842;6.084;2024-01-15T11:34:49;15.45;;;11.70;;
66143;SDS011;52947;50.842;6.084;2024-01-15T11:37:25;16.65;;;11.25;;
66143;SDS011;52947;50.842;6.084;2024-01-15T11:39:55;19.00;;;12.25;;
66143;SDS011;52947;50.842;6.084;2024-01-15T11:42:29;19.10;;;9.75;;
66143;SDS011;52947;50.842;6.084;2024-01-15T11:44:57;29.23;;;10.13;;
66143;SDS011;52947;50.842;6.084;2024-01-15T11:47:36;20.50;;;12.35;;
66143;SDS011;52947;50.842;6.084;2024-01-15T11:50:29;23.88;;;11.68;;
66143;SDS011;52947;50.842;6.084;2024-01-15T11:53:00;13.02;;;9.75;;
66143;SDS011;52947;50.842;6.084;2024-01-15T11:55:33;19.23;;;11.02;;
66143;SDS011;52947;50.842;6.084;2024-01-15T11:58:05;23.55;;;10.77;;
66143;SDS011;52947;50.842;6.084;2024-01-15T12:00:39;13.85;;;10.30;;
66143;SDS011;52947;50.842;6.084;2024-01-15T12:03:08;16.33;;;8.20;;
66143;SDS011;52947;50.842;6.084;2024-01-15T12:05:37;28.58;;;9.52;;
66143;SDS011;52947;50.842;6.084;2024-01-15T12:08:05;14.02;;;8.73;;
66143;SDS011;52947;50.842;6.084;2024-01-15T12:10:38;14.65;;;8.27;;
66143;SDS011;52947;50.842;6.084;2024-01-15T12:13:11;19.85;;;8.98;;
66143;SDS011;52947;50.842;6.084;2024-01-15T12:15:40;16.05;;;8.30;;
66143;SDS011;52947;50.842;6.084;2024-01-15T12:18:11;12.88;;;7.93;;
66143;SDS011;52947;50.842;6.084;2024-01-15T12:20:40;23.25;;;8.85;;
66143;SDS011;52947;50.842;6.084;2024-01-15T12:23:10;13.48;;;8.60;;
66143;SDS011;52947;50.842;6.084;2024-01-15T12:25:38;18.30;;;8.55;;
66143;SDS011;52947;50.842;6.084;2024-01-15T12:28:07;19.38;;;8.50;;
66143;SDS011;52947;50.842;6.084;2024-01-15T12:30:36;19.02;;;9.10;;
66143;SDS011;52947;50.842;6.084;2024-01-15T12:33:05;17.05;;;10.38;;
66143;SDS011;52947;50.842;6.084;2024-01-15T12:35:35;16.75;;;9.52;;
66143;SDS011;52947;50.842;6.084;2024-01-15T12:38:03;15.50;;;8.73;;
66143;SDS011;52947;50.842;6.084;2024-01-15T12:40:32;12.40;;;8.57;;
66143;SDS011;52947;50.842;6.084;2024-01-15T12:43:03;16.00;;;9.57;;
66143;SDS011;52947;50.842;6.084;2024-01-15T12:45:33;12.00;;;8.52;;
66143;SDS011;52947;50.842;6.084;2024-01-15T12:48:06;14.32;;;8.60;;
66143;SDS011;52947;50.842;6.084;2024-01-15T12:50:34;9.93;;;8.65;;
66143;SDS011;52947;50.842;6.084;2024-01-15T12:53:05;20.02;;;9.30;;
66143;SDS011;52947;50.842;6.084;2024-01-15T12:55:34;14.57;;;8.70;;
66143;SDS011;52947;50.842;6.084;2024-01-15T12:58:02;16.85;;;7.32;;
66143;SDS011;52947;50.842;6.084;2024-01-15T13:00:30;13.75;;;8.02;;
66143;SDS011;52947;50.842;6.084;2024-01-15T13:02:59;13.30;;;9.13;;
66143;SDS011;52947;50.842;6.084;2024-01-15T13:05:29;9.93;;;8.93;;
66143;SDS011;52947;50.842;6.084;2024-01-15T13:08:00;21.17;;;10.85;;
66143;SDS011;52947;50.842;6.084;2024-01-15T13:10:29;11.98;;;8.30;;
66143;SDS011;52947;50.842;6.084;2024-01-15T13:12:57;17.00;;;8.73;;
66143;SDS011;52947;50.842;6.084;2024-01-15T13:15:26;13.20;;;8.68;;
66143;SDS011;52947;50.842;6.084;2024-01-15T13:17:54;10.30;;;7.93;;
66143;SDS011;52947;50.842;6.084;2024-01-15T13:20:22;18.35;;;7.90;;
66143;SDS011;52947;50.842;6.084;2024-01-15T13:22:52;9.07;;;8.30;;
66143;SDS011;52947;50.842;6.084;2024-01-15T13:25:20;15.52;;;9.35;;
66143;SDS011;52947;50.842;6.084;2024-01-15T13:27:48;10.52;;;8.85;;
66143;SDS011;52947;50.842;6.084;2024-01-15T13:30:16;21.55;;;9.68;;
66143;SDS011;52947;50.842;6.084;2024-01-15T13:32:44;13.50;;;10.43;;
66143;SDS011;52947;50.842;6.084;2024-01-15T13:35:13;11.52;;;9.13;;
66143;SDS011;52947;50.842;6.084;2024-01-15T13:37:41;12.10;;;8.40;;
66143;SDS011;52947;50.842;6.084;2024-01-15T13:40:11;19.67;;;9.65;;
66143;SDS011;52947;50.842;6.084;2024-01-15T13:42:44;14.02;;;10.18;;
66143;SDS011;52947;50.842;6.084;2024-01-15T13:45:14;10.52;;;8.45;;
66143;SDS011;52947;50.842;6.084;2024-01-15T13:47:42;11.43;;;8.23;;
66143;SDS011;52947;50.842;6.084;2024-01-15T13:50:11;19.55;;;8.35;;
66143;SDS011;52947;50.842;6.084;2024-01-15T13:52:39;8.73;;;7.85;;
66143;SDS011;52947;50.842;6.084;2024-01-15T13:55:08;9.45;;;8.35;;
66143;SDS011;52947;50.842;6.084;2024-01-15T13:57:38;10.18;;;9.07;;
66143;SDS011;52947;50.842;6.084;2024-01-15T14:00:06;9.93;;;8.93;;
66143;SDS011;52947;50.842;6.084;2024-01-15T14:02:38;10.88;;;9.20;;
66143;SDS011;52947;50.842;6.084;2024-01-15T14:05:06;16.00;;;9.52;;
66143;SDS011;52947;50.842;6.084;2024-01-15T14:07:35;14.35;;;10.82;;
66143;SDS011;52947;50.842;6.084;2024-01-15T14:10:03;13.98;;;9.48;;
66143;SDS011;52947;50.842;6.084;2024-01-15T14:12:32;11.55;;;10.05;;
66143;SDS011;52947;50.842;6.084;2024-01-15T14:15:02;9.88;;;8.90;;
66143;SDS011;52947;50.842;6.084;2024-01-15T14:17:32;13.27;;;10.05;;
66143;SDS011;52947;50.842;6.084;2024-01-15T14:20:00;11.52;;;9.07;;
66143;SDS011;52947;50.842;6.084;2024-01-15T14:22:32;11.50;;;8.30;;
66143;SDS011;52947;50.842;6.084;2024-01-15T14:25:00;13.30;;;8.93;;
66143;SDS011;52947;50.842;6.084;2024-01-15T14:27:28;9.65;;;8.70;;
66143;SDS011;52947;50.842;6.084;2024-01-15T14:29:56;13.63;;;8.48;;
66143;SDS011;52947;50.842;6.084;2024-01-15T14:32:25;10.15;;;7.68;;
66143;SDS011;52947;50.842;6.084;2024-01-15T14:34:53;10.48;;;8.32;;